KMHL/MHL METAR and TAF weather

Enter ICAO airport designator
Station Type Date Time Source
KMHL METAR 2022/01/29 01:15 UTC NOAA

KMHL 290115Z AUTO 00000KT 10SM CLR M06/M16 A3041 RMK AO2


Station Type Date Time Source
KMHL Decoded METAR 2022/01/29 01:15 UTC NOAA

Station name not available
Jan 28, 2022 - 08:15 PM EST / 2022.01.29 0115 UTC
Wind: Calm:0
Visibility: 10 mile(s):0
Sky conditions: clear
Temperature: 21 F (-6 C)
Dew Point: 3 F (-16 C)
Relative Humidity: 45%
Pressure (altimeter): 30.41 in. Hg (1029 hPa)
ob: KMHL 290115Z AUTO 00000KT 10SM CLR M06/M16 A3041 RMK AO2
cycle: 1

Station Type Date Time Source
KMHL TAF UTC NOAA

Error!

Example: see airport list